BAW387 EBBR-EGLL
Flight info
| Callsign | BAW387 |
|---|---|
| Flight time | 0h 53m |
| Altitude | 18000 |
| Route | HELEN L179 SASKI L608 LOGAN |
| Aircraft | A20N/M-SDE2E3FGHIRWXY/LB1 |
Departure
| Time | 2026-05-07 17:46 |
|---|---|
| Airport | Brussels Airport (EBBR) |
Arrival
| Time | 2026-05-07 18:39 |
|---|---|
| Airport | London Heathrow Airport (EGLL) |
| Time | Latitude | Longitude | Altitude | Speed | Heading |
|---|---|---|---|---|---|
| 2026-05-07 17:15 | 50.89943 | 4.48676 | 149 ft | 0 kts | 335° |
| 2026-05-07 17:32 | 50.89937 | 4.48680 | 149 ft | 2 kts | 335° |
| 2026-05-07 17:32 | 50.89922 | 4.48691 | 149 ft | 2 kts | 336° |
| 2026-05-07 17:32 | 50.89907 | 4.48701 | 149 ft | 2 kts | 336° |
| 2026-05-07 17:32 | 50.89896 | 4.48708 | 150 ft | 2 kts | 338° |
| 2026-05-07 17:33 | 50.89881 | 4.48718 | 150 ft | 2 kts | 342° |
| 2026-05-07 17:33 | 50.89865 | 4.48722 | 150 ft | 2 kts | 8° |
| 2026-05-07 17:33 | 50.89849 | 4.48716 | 150 ft | 2 kts | 18° |
| 2026-05-07 17:33 | 50.89835 | 4.48705 | 150 ft | 2 kts | 39° |
| 2026-05-07 17:34 | 50.89824 | 4.48686 | 151 ft | 1 kts | 54° |
| 2026-05-07 17:34 | 50.89823 | 4.48684 | 151 ft | 0 kts | 54° |
| 2026-05-07 17:35 | 50.89822 | 4.48682 | 151 ft | 0 kts | 54° |
| 2026-05-07 17:37 | 50.89831 | 4.48711 | 150 ft | 8 kts | 64° |
| 2026-05-07 17:37 | 50.89854 | 4.48792 | 150 ft | 8 kts | 67° |
| 2026-05-07 17:37 | 50.89878 | 4.48873 | 150 ft | 8 kts | 65° |
| 2026-05-07 17:38 | 50.89901 | 4.48954 | 150 ft | 8 kts | 66° |
| 2026-05-07 17:38 | 50.89924 | 4.49037 | 149 ft | 9 kts | 66° |
| 2026-05-07 17:38 | 50.89958 | 4.49158 | 148 ft | 14 kts | 66° |
| 2026-05-07 17:38 | 50.89992 | 4.49299 | 146 ft | 14 kts | 64° |
| 2026-05-07 17:39 | 50.90034 | 4.49412 | 145 ft | 8 kts | 40° |
| 2026-05-07 17:39 | 50.89895 | 4.48709 | 149 ft | 0 kts | 338° |
| 2026-05-07 17:39 | 50.89896 | 4.48709 | 150 ft | 0 kts | 338° |
| 2026-05-07 17:40 | 50.89918 | 4.48721 | 149 ft | 3 kts | 51° |
| 2026-05-07 17:41 | 50.89885 | 4.48862 | 150 ft | 4 kts | 106° |
| 2026-05-07 17:41 | 50.89893 | 4.48925 | 150 ft | 6 kts | 71° |
| 2026-05-07 17:41 | 50.89913 | 4.48999 | 150 ft | 8 kts | 65° |
| 2026-05-07 17:41 | 50.89943 | 4.49092 | 149 ft | 11 kts | 63° |
| 2026-05-07 17:42 | 50.89972 | 4.49219 | 147 ft | 14 kts | 73° |
| 2026-05-07 17:42 | 50.90018 | 4.49374 | 146 ft | 17 kts | 54° |
| 2026-05-07 17:42 | 50.90138 | 4.49462 | 141 ft | 23 kts | 14° |
| 2026-05-07 17:42 | 50.90300 | 4.49529 | 140 ft | 25 kts | 14° |
| 2026-05-07 17:43 | 50.90482 | 4.49603 | 139 ft | 28 kts | 16° |
| 2026-05-07 17:43 | 50.90677 | 4.49684 | 136 ft | 31 kts | 13° |
| 2026-05-07 17:43 | 50.90855 | 4.49755 | 132 ft | 20 kts | 14° |
| 2026-05-07 17:43 | 50.90904 | 4.49775 | 127 ft | 1 kts | 15° |
| 2026-05-07 17:44 | 50.90919 | 4.49785 | 126 ft | 4 kts | 21° |
| 2026-05-07 17:44 | 50.90936 | 4.49796 | 127 ft | 0 kts | 28° |
| 2026-05-07 17:44 | 50.90937 | 4.49798 | 127 ft | 3 kts | 34° |
| 2026-05-07 17:45 | 50.90988 | 4.49868 | 126 ft | 12 kts | 38° |
| 2026-05-07 17:45 | 50.91072 | 4.49931 | 125 ft | 18 kts | 19° |
| 2026-05-07 17:45 | 50.91133 | 4.49872 | 125 ft | 24 kts | 272° |
| 2026-05-07 17:45 | 50.90985 | 4.49345 | 137 ft | 98 kts | 244° |
| 2026-05-07 17:46 | 50.90581 | 4.47936 | 153 ft | 177 kts | 245° |
| 2026-05-07 17:46 | 50.90049 | 4.46127 | 1036 ft | 179 kts | 246° |
| 2026-05-07 17:46 | 50.89697 | 4.44204 | 2017 ft | 192 kts | 272° |
| 2026-05-07 17:46 | 50.90271 | 4.42289 | 2912 ft | 201 kts | 317° |
| 2026-05-07 17:47 | 50.91481 | 4.41168 | 3937 ft | 204 kts | 339° |
| 2026-05-07 17:47 | 50.92759 | 4.40134 | 4993 ft | 209 kts | 329° |
| 2026-05-07 17:47 | 50.93995 | 4.38776 | 5835 ft | 224 kts | 322° |
| 2026-05-07 17:47 | 50.95271 | 4.37033 | 6414 ft | 259 kts | 316° |
| 2026-05-07 17:48 | 50.96587 | 4.34932 | 6842 ft | 273 kts | 312° |
| 2026-05-07 17:48 | 50.97867 | 4.32698 | 6983 ft | 274 kts | 310° |
| 2026-05-07 17:48 | 50.99122 | 4.30421 | 6991 ft | 274 kts | 310° |
| 2026-05-07 17:48 | 51.00375 | 4.28128 | 6991 ft | 275 kts | 310° |
| 2026-05-07 17:49 | 51.01636 | 4.25839 | 6987 ft | 275 kts | 310° |
| 2026-05-07 17:49 | 51.02885 | 4.23594 | 6988 ft | 275 kts | 311° |
| 2026-05-07 17:49 | 51.04160 | 4.21325 | 7044 ft | 275 kts | 311° |
| 2026-05-07 17:49 | 51.05457 | 4.19030 | 7068 ft | 275 kts | 311° |
| 2026-05-07 17:50 | 51.06740 | 4.16767 | 7069 ft | 275 kts | 311° |
| 2026-05-07 17:50 | 51.08022 | 4.14507 | 7067 ft | 276 kts | 311° |
| 2026-05-07 17:50 | 51.09307 | 4.12241 | 7066 ft | 276 kts | 311° |
| 2026-05-07 17:50 | 51.10574 | 4.10003 | 7066 ft | 276 kts | 311° |
| 2026-05-07 17:51 | 51.11859 | 4.07732 | 7067 ft | 276 kts | 311° |
| 2026-05-07 17:51 | 51.13140 | 4.05464 | 7065 ft | 276 kts | 311° |
| 2026-05-07 17:51 | 51.14423 | 4.03190 | 7064 ft | 276 kts | 311° |
| 2026-05-07 17:51 | 51.15706 | 4.00913 | 7063 ft | 276 kts | 311° |
| 2026-05-07 17:52 | 51.16986 | 3.98640 | 7065 ft | 276 kts | 311° |
| 2026-05-07 17:52 | 51.18263 | 3.96371 | 7064 ft | 276 kts | 311° |
| 2026-05-07 17:52 | 51.19545 | 3.94088 | 7063 ft | 275 kts | 311° |
| 2026-05-07 17:52 | 51.20575 | 3.91558 | 7063 ft | 274 kts | 287° |
| 2026-05-07 17:53 | 51.20614 | 3.88578 | 7086 ft | 271 kts | 252° |
| 2026-05-07 17:53 | 51.19529 | 3.86131 | 7564 ft | 280 kts | 216° |
| 2026-05-07 17:53 | 51.17674 | 3.85111 | 8777 ft | 287 kts | 184° |
| 2026-05-07 17:53 | 51.15697 | 3.85110 | 10415 ft | 284 kts | 180° |
| 2026-05-07 17:54 | 51.13691 | 3.85148 | 11443 ft | 301 kts | 181° |
| 2026-05-07 17:54 | 51.11526 | 3.85061 | 12407 ft | 318 kts | 183° |
| 2026-05-07 17:54 | 51.09286 | 3.84870 | 13619 ft | 327 kts | 185° |
| 2026-05-07 17:54 | 51.06987 | 3.84616 | 14780 ft | 333 kts | 185° |
| 2026-05-07 17:55 | 51.04691 | 3.83993 | 15904 ft | 338 kts | 200° |
| 2026-05-07 17:55 | 51.02652 | 3.82118 | 16977 ft | 341 kts | 221° |
| 2026-05-07 17:55 | 51.01155 | 3.79189 | 17702 ft | 346 kts | 242° |
| 2026-05-07 17:55 | 51.00395 | 3.75577 | 18017 ft | 347 kts | 262° |
| 2026-05-07 17:56 | 51.00499 | 3.71755 | 18059 ft | 350 kts | 283° |
| 2026-05-07 17:56 | 51.01483 | 3.68234 | 18058 ft | 353 kts | 303° |
| 2026-05-07 17:56 | 51.03065 | 3.65236 | 18055 ft | 355 kts | 311° |
| 2026-05-07 17:56 | 51.04763 | 3.62372 | 18056 ft | 355 kts | 312° |
| 2026-05-07 17:57 | 51.06462 | 3.59527 | 18056 ft | 355 kts | 312° |
| 2026-05-07 17:57 | 51.07591 | 3.57635 | 18056 ft | 355 kts | 312° |
| 2026-05-07 17:57 | 51.09844 | 3.53858 | 18056 ft | 355 kts | 312° |
| 2026-05-07 17:57 | 51.11546 | 3.51003 | 18059 ft | 355 kts | 312° |
| 2026-05-07 17:58 | 51.13252 | 3.48140 | 18058 ft | 355 kts | 312° |
| 2026-05-07 17:58 | 51.14952 | 3.45283 | 18059 ft | 355 kts | 312° |
| 2026-05-07 17:58 | 51.16653 | 3.42426 | 18059 ft | 355 kts | 312° |
| 2026-05-07 17:58 | 51.18353 | 3.39566 | 18063 ft | 355 kts | 312° |
| 2026-05-07 17:59 | 51.20051 | 3.36708 | 18064 ft | 355 kts | 312° |
| 2026-05-07 17:59 | 51.21755 | 3.33838 | 18065 ft | 355 kts | 312° |
| 2026-05-07 17:59 | 51.23454 | 3.30976 | 18067 ft | 356 kts | 312° |
| 2026-05-07 17:59 | 51.25160 | 3.28104 | 18067 ft | 356 kts | 312° |
| 2026-05-07 18:00 | 51.26860 | 3.25239 | 18068 ft | 356 kts | 312° |
| 2026-05-07 18:00 | 51.28471 | 3.22246 | 18069 ft | 355 kts | 304° |
| 2026-05-07 18:00 | 51.29871 | 3.19011 | 18072 ft | 354 kts | 302° |
| 2026-05-07 18:00 | 51.31192 | 3.15683 | 18071 ft | 354 kts | 300° |
| 2026-05-07 18:01 | 51.32456 | 3.12308 | 18072 ft | 354 kts | 299° |
| 2026-05-07 18:01 | 51.33694 | 3.08901 | 18064 ft | 354 kts | 298° |
| 2026-05-07 18:01 | 51.34917 | 3.05491 | 18064 ft | 353 kts | 298° |
| 2026-05-07 18:01 | 51.36137 | 3.02080 | 18064 ft | 353 kts | 298° |
| 2026-05-07 18:02 | 51.38567 | 2.95308 | 18064 ft | 353 kts | 298° |
| 2026-05-07 18:02 | 51.39794 | 2.91901 | 18069 ft | 354 kts | 298° |
| 2026-05-07 18:02 | 51.41024 | 2.88494 | 18070 ft | 354 kts | 298° |
| 2026-05-07 18:03 | 51.42254 | 2.85085 | 18072 ft | 353 kts | 298° |
| 2026-05-07 18:03 | 51.43482 | 2.81678 | 18069 ft | 353 kts | 298° |
| 2026-05-07 18:03 | 51.44707 | 2.78276 | 18070 ft | 353 kts | 298° |
| 2026-05-07 18:03 | 51.45936 | 2.74856 | 18069 ft | 353 kts | 298° |
| 2026-05-07 18:04 | 51.47160 | 2.71447 | 18067 ft | 353 kts | 298° |
| 2026-05-07 18:04 | 51.48380 | 2.68040 | 18064 ft | 353 kts | 298° |
| 2026-05-07 18:04 | 51.49605 | 2.64618 | 18064 ft | 352 kts | 298° |
| 2026-05-07 18:04 | 51.50823 | 2.61210 | 18067 ft | 352 kts | 298° |
| 2026-05-07 18:05 | 51.52041 | 2.57799 | 18066 ft | 352 kts | 298° |
| 2026-05-07 18:05 | 51.53259 | 2.54381 | 18067 ft | 352 kts | 298° |
| 2026-05-07 18:05 | 51.54423 | 2.50925 | 18067 ft | 351 kts | 293° |
| 2026-05-07 18:05 | 51.55361 | 2.47303 | 18068 ft | 351 kts | 290° |
| 2026-05-07 18:06 | 51.56241 | 2.43631 | 18069 ft | 352 kts | 289° |
| 2026-05-07 18:06 | 51.57090 | 2.39986 | 18073 ft | 352 kts | 289° |
| 2026-05-07 18:06 | 51.57942 | 2.36289 | 18069 ft | 352 kts | 289° |
| 2026-05-07 18:06 | 51.58788 | 2.32587 | 18070 ft | 352 kts | 289° |
| 2026-05-07 18:07 | 51.59631 | 2.28886 | 18069 ft | 353 kts | 289° |
| 2026-05-07 18:07 | 51.60475 | 2.25174 | 18067 ft | 354 kts | 289° |
| 2026-05-07 18:07 | 51.61318 | 2.21455 | 18067 ft | 354 kts | 289° |
| 2026-05-07 18:07 | 51.62159 | 2.17738 | 18066 ft | 353 kts | 289° |
| 2026-05-07 18:08 | 51.62997 | 2.14026 | 18066 ft | 353 kts | 288° |
| 2026-05-07 18:08 | 51.63833 | 2.10314 | 18064 ft | 353 kts | 289° |
| 2026-05-07 18:08 | 51.64669 | 2.06598 | 18064 ft | 353 kts | 288° |
| 2026-05-07 18:08 | 51.65502 | 2.02886 | 18064 ft | 352 kts | 288° |
| 2026-05-07 18:09 | 51.66333 | 1.99180 | 18066 ft | 352 kts | 288° |
| 2026-05-07 18:09 | 51.66883 | 1.96721 | 18068 ft | 352 kts | 288° |
| 2026-05-07 18:09 | 51.67713 | 1.93009 | 18077 ft | 352 kts | 288° |
| 2026-05-07 18:09 | 51.68543 | 1.89286 | 18070 ft | 353 kts | 288° |
| 2026-05-07 18:10 | 51.69371 | 1.85566 | 18069 ft | 353 kts | 288° |
| 2026-05-07 18:10 | 51.70469 | 1.80625 | 18069 ft | 353 kts | 288° |
| 2026-05-07 18:10 | 51.71028 | 1.78108 | 18070 ft | 353 kts | 288° |
| 2026-05-07 18:10 | 51.71853 | 1.74382 | 18069 ft | 353 kts | 288° |
| 2026-05-07 18:11 | 51.72680 | 1.70640 | 18075 ft | 353 kts | 288° |
| 2026-05-07 18:11 | 51.73493 | 1.66955 | 18072 ft | 354 kts | 288° |
| 2026-05-07 18:11 | 51.74279 | 1.63197 | 18071 ft | 353 kts | 284° |
| 2026-05-07 18:11 | 51.74588 | 1.59301 | 18074 ft | 351 kts | 269° |
| 2026-05-07 18:12 | 51.74437 | 1.55380 | 18071 ft | 350 kts | 264° |
| 2026-05-07 18:12 | 51.74183 | 1.51468 | 18072 ft | 350 kts | 263° |
| 2026-05-07 18:12 | 51.73918 | 1.47569 | 18073 ft | 350 kts | 263° |
| 2026-05-07 18:12 | 51.73654 | 1.43661 | 18075 ft | 350 kts | 263° |
| 2026-05-07 18:13 | 51.73394 | 1.39755 | 18072 ft | 350 kts | 263° |
| 2026-05-07 18:13 | 51.73136 | 1.35861 | 18072 ft | 349 kts | 263° |
| 2026-05-07 18:13 | 51.72879 | 1.31970 | 18072 ft | 349 kts | 263° |
| 2026-05-07 18:13 | 51.72621 | 1.28079 | 18073 ft | 349 kts | 263° |
| 2026-05-07 18:14 | 51.72362 | 1.24183 | 18077 ft | 349 kts | 263° |
| 2026-05-07 18:14 | 51.72103 | 1.20292 | 18075 ft | 349 kts | 263° |
| 2026-05-07 18:14 | 51.71842 | 1.16394 | 18075 ft | 349 kts | 263° |
| 2026-05-07 18:14 | 51.71580 | 1.12501 | 18072 ft | 349 kts | 263° |
| 2026-05-07 18:15 | 51.71316 | 1.08601 | 18070 ft | 349 kts | 263° |
| 2026-05-07 18:15 | 51.71052 | 1.04716 | 18072 ft | 349 kts | 263° |
| 2026-05-07 18:15 | 51.70787 | 1.00831 | 17722 ft | 355 kts | 263° |
| 2026-05-07 18:15 | 51.70515 | 0.96864 | 16862 ft | 357 kts | 263° |
| 2026-05-07 18:16 | 51.70243 | 0.92912 | 16282 ft | 349 kts | 262° |
| 2026-05-07 18:16 | 51.69981 | 0.89111 | 16097 ft | 333 kts | 262° |
| 2026-05-07 18:16 | 51.69731 | 0.85509 | 16079 ft | 313 kts | 262° |
| 2026-05-07 18:16 | 51.69492 | 0.82087 | 15793 ft | 304 kts | 262° |
| 2026-05-07 18:17 | 51.69255 | 0.78725 | 15276 ft | 303 kts | 262° |
| 2026-05-07 18:17 | 51.69017 | 0.75353 | 14765 ft | 301 kts | 261° |
| 2026-05-07 18:17 | 51.68779 | 0.72002 | 14256 ft | 300 kts | 261° |
| 2026-05-07 18:17 | 51.68542 | 0.68671 | 13767 ft | 298 kts | 261° |
| 2026-05-07 18:18 | 51.68305 | 0.65356 | 13217 ft | 297 kts | 261° |
| 2026-05-07 18:18 | 51.68068 | 0.62064 | 12715 ft | 294 kts | 262° |
| 2026-05-07 18:18 | 51.67833 | 0.58797 | 12223 ft | 292 kts | 262° |
| 2026-05-07 18:18 | 51.67600 | 0.55571 | 11790 ft | 288 kts | 261° |
| 2026-05-07 18:19 | 51.67370 | 0.52419 | 11313 ft | 286 kts | 262° |
| 2026-05-07 18:19 | 51.67138 | 0.49236 | 10831 ft | 284 kts | 261° |
| 2026-05-07 18:19 | 51.66909 | 0.46087 | 10332 ft | 283 kts | 261° |
| 2026-05-07 18:19 | 51.66677 | 0.42939 | 9781 ft | 283 kts | 262° |
| 2026-05-07 18:20 | 51.66445 | 0.39785 | 9246 ft | 280 kts | 262° |
| 2026-05-07 18:20 | 51.66323 | 0.36666 | 8737 ft | 277 kts | 267° |
| 2026-05-07 18:20 | 51.66262 | 0.33568 | 8257 ft | 275 kts | 265° |
| 2026-05-07 18:20 | 51.66128 | 0.30523 | 8077 ft | 271 kts | 265° |
| 2026-05-07 18:21 | 51.65979 | 0.27485 | 8068 ft | 272 kts | 264° |
| 2026-05-07 18:21 | 51.65833 | 0.24449 | 8069 ft | 271 kts | 264° |
| 2026-05-07 18:21 | 51.65696 | 0.21435 | 8066 ft | 270 kts | 264° |
| 2026-05-07 18:21 | 51.65548 | 0.18413 | 8070 ft | 271 kts | 263° |
| 2026-05-07 18:22 | 51.65397 | 0.15382 | 8071 ft | 271 kts | 264° |
| 2026-05-07 18:22 | 51.65297 | 0.13378 | 8072 ft | 272 kts | 264° |
| 2026-05-07 18:22 | 51.65096 | 0.09489 | 8073 ft | 247 kts | 264° |
| 2026-05-07 18:22 | 51.64958 | 0.06787 | 8078 ft | 239 kts | 263° |
| 2026-05-07 18:23 | 51.64833 | 0.04120 | 8066 ft | 238 kts | 264° |
| 2026-05-07 18:23 | 51.64698 | 0.01463 | 8074 ft | 239 kts | 263° |
| 2026-05-07 18:23 | 51.64570 | -0.01199 | 8073 ft | 239 kts | 264° |
| 2026-05-07 18:23 | 51.64432 | -0.03876 | 8067 ft | 241 kts | 264° |
| 2026-05-07 18:24 | 51.64288 | -0.06567 | 8069 ft | 242 kts | 264° |
| 2026-05-07 18:24 | 51.64141 | -0.09226 | 8098 ft | 240 kts | 264° |
| 2026-05-07 18:24 | 51.63995 | -0.11897 | 8078 ft | 241 kts | 264° |
| 2026-05-07 18:24 | 51.63846 | -0.14570 | 7756 ft | 239 kts | 264° |
| 2026-05-07 18:25 | 51.63689 | -0.17232 | 7266 ft | 240 kts | 264° |
| 2026-05-07 18:25 | 51.63528 | -0.19920 | 7090 ft | 242 kts | 264° |
| 2026-05-07 18:25 | 51.63367 | -0.22625 | 7069 ft | 242 kts | 264° |
| 2026-05-07 18:25 | 51.63203 | -0.25309 | 7076 ft | 241 kts | 264° |
| 2026-05-07 18:26 | 51.63043 | -0.27987 | 7079 ft | 240 kts | 264° |
| 2026-05-07 18:26 | 51.62881 | -0.30670 | 7077 ft | 240 kts | 264° |
| 2026-05-07 18:26 | 51.62721 | -0.33346 | 7072 ft | 240 kts | 264° |
| 2026-05-07 18:26 | 51.62556 | -0.36032 | 7052 ft | 240 kts | 264° |
| 2026-05-07 18:27 | 51.62425 | -0.38715 | 7046 ft | 241 kts | 265° |
| 2026-05-07 18:27 | 51.62307 | -0.41407 | 7047 ft | 241 kts | 264° |
| 2026-05-07 18:27 | 51.62147 | -0.44077 | 7045 ft | 241 kts | 264° |
| 2026-05-07 18:27 | 51.61980 | -0.46770 | 7052 ft | 241 kts | 264° |
| 2026-05-07 18:28 | 51.61817 | -0.49445 | 7047 ft | 240 kts | 264° |
| 2026-05-07 18:28 | 51.61653 | -0.52091 | 7047 ft | 241 kts | 263° |
| 2026-05-07 18:28 | 51.61491 | -0.54771 | 7044 ft | 240 kts | 264° |
| 2026-05-07 18:28 | 51.61330 | -0.57446 | 7051 ft | 240 kts | 264° |
| 2026-05-07 18:29 | 51.61167 | -0.60104 | 6651 ft | 238 kts | 264° |
| 2026-05-07 18:29 | 51.60995 | -0.62765 | 6048 ft | 238 kts | 264° |
| 2026-05-07 18:29 | 51.60822 | -0.65421 | 5463 ft | 237 kts | 264° |
| 2026-05-07 18:29 | 51.60651 | -0.68050 | 4914 ft | 235 kts | 264° |
| 2026-05-07 18:30 | 51.60485 | -0.70652 | 4360 ft | 233 kts | 264° |
| 2026-05-07 18:30 | 51.60320 | -0.73209 | 4042 ft | 233 kts | 261° |
| 2026-05-07 18:30 | 51.59752 | -0.75620 | 3989 ft | 232 kts | 237° |
| 2026-05-07 18:30 | 51.58801 | -0.77707 | 3985 ft | 231 kts | 231° |
| 2026-05-07 18:31 | 51.57806 | -0.79728 | 3983 ft | 230 kts | 231° |
| 2026-05-07 18:31 | 51.56805 | -0.81740 | 3984 ft | 231 kts | 231° |
| 2026-05-07 18:31 | 51.55795 | -0.83762 | 3984 ft | 232 kts | 231° |
| 2026-05-07 18:31 | 51.54778 | -0.85790 | 3983 ft | 233 kts | 231° |
| 2026-05-07 18:32 | 51.53761 | -0.87817 | 3983 ft | 233 kts | 230° |
| 2026-05-07 18:32 | 51.52744 | -0.89848 | 3981 ft | 233 kts | 231° |
| 2026-05-07 18:32 | 51.51618 | -0.91679 | 3979 ft | 224 kts | 211° |
| 2026-05-07 18:32 | 51.50252 | -0.92284 | 3988 ft | 197 kts | 176° |
| 2026-05-07 18:33 | 51.49046 | -0.91501 | 3992 ft | 187 kts | 138° |
| 2026-05-07 18:33 | 51.48235 | -0.89888 | 3996 ft | 186 kts | 123° |
| 2026-05-07 18:33 | 51.47553 | -0.88129 | 3993 ft | 186 kts | 121° |
| 2026-05-07 18:33 | 51.46884 | -0.86346 | 3988 ft | 187 kts | 121° |
| 2026-05-07 18:34 | 51.46274 | -0.84517 | 3981 ft | 186 kts | 108° |
| 2026-05-07 18:34 | 51.46092 | -0.82471 | 3990 ft | 186 kts | 93° |
| 2026-05-07 18:34 | 51.46061 | -0.80404 | 3988 ft | 186 kts | 91° |
| 2026-05-07 18:34 | 51.46133 | -0.78332 | 3981 ft | 186 kts | 77° |
| 2026-05-07 18:35 | 51.46682 | -0.76461 | 3950 ft | 186 kts | 53° |
| 2026-05-07 18:35 | 51.47502 | -0.74976 | 3972 ft | 171 kts | 57° |
| 2026-05-07 18:35 | 51.47848 | -0.73217 | 3988 ft | 166 kts | 90° |
| 2026-05-07 18:35 | 51.47750 | -0.71384 | 3997 ft | 165 kts | 95° |
| 2026-05-07 18:36 | 51.47686 | -0.69551 | 3952 ft | 164 kts | 91° |
| 2026-05-07 18:36 | 51.47682 | -0.67715 | 3557 ft | 166 kts | 90° |
| 2026-05-07 18:36 | 51.47692 | -0.65853 | 3095 ft | 168 kts | 90° |
| 2026-05-07 18:36 | 51.47699 | -0.63989 | 2640 ft | 164 kts | 91° |
| 2026-05-07 18:37 | 51.47703 | -0.62160 | 2049 ft | 165 kts | 92° |
| 2026-05-07 18:37 | 51.47706 | -0.60309 | 1834 ft | 170 kts | 91° |
| 2026-05-07 18:37 | 51.47712 | -0.58366 | 1989 ft | 171 kts | 91° |
| 2026-05-07 18:37 | 51.47720 | -0.56498 | 1886 ft | 163 kts | 91° |
| 2026-05-07 18:38 | 51.47727 | -0.54779 | 1755 ft | 144 kts | 92° |
| 2026-05-07 18:38 | 51.47736 | -0.53243 | 1498 ft | 136 kts | 92° |
| 2026-05-07 18:38 | 51.47763 | -0.51681 | 830 ft | 150 kts | 94° |
| 2026-05-07 18:38 | 51.47764 | -0.49968 | 277 ft | 154 kts | 89° |
| 2026-05-07 18:39 | 51.47758 | -0.48362 | 151 ft | 136 kts | 93° |
| 2026-05-07 18:39 | 51.47756 | -0.46932 | 95 ft | 114 kts | 89° |
| 2026-05-07 18:39 | 51.47758 | -0.46091 | 92 ft | 33 kts | 90° |
| 2026-05-07 18:39 | 51.47757 | -0.45902 | 91 ft | 20 kts | 91° |
| 2026-05-07 18:40 | 51.47757 | -0.45722 | 91 ft | 18 kts | 86° |
| 2026-05-07 18:40 | 51.47743 | -0.45518 | 89 ft | 29 kts | 123° |
| 2026-05-07 18:40 | 51.47613 | -0.45449 | 94 ft | 9 kts | 137° |
| 2026-05-07 18:40 | 51.47597 | -0.45244 | 89 ft | 32 kts | 88° |
| 2026-05-07 18:41 | 51.47598 | -0.44862 | 90 ft | 29 kts | 90° |
| 2026-05-07 18:41 | 51.47599 | -0.44536 | 89 ft | 15 kts | 90° |
| 2026-05-07 18:41 | 51.47598 | -0.44353 | 89 ft | 15 kts | 92° |
| 2026-05-07 18:41 | 51.47592 | -0.44169 | 89 ft | 20 kts | 89° |
| 2026-05-07 18:42 | 51.47536 | -0.44071 | 91 ft | 12 kts | 185° |
| 2026-05-07 18:42 | 51.47505 | -0.44151 | 92 ft | 10 kts | 267° |
| 2026-05-07 18:42 | 51.47503 | -0.44399 | 91 ft | 27 kts | 270° |
| 2026-05-07 18:42 | 51.47511 | -0.44707 | 90 ft | 30 kts | 269° |
| 2026-05-07 18:43 | 51.47508 | -0.45057 | 93 ft | 33 kts | 269° |
| 2026-05-07 18:43 | 51.47508 | -0.45440 | 93 ft | 35 kts | 270° |
| 2026-05-07 18:43 | 51.47517 | -0.45848 | 89 ft | 38 kts | 270° |
| 2026-05-07 18:43 | 51.47516 | -0.46291 | 89 ft | 38 kts | 269° |
| 2026-05-07 18:44 | 51.47515 | -0.46589 | 89 ft | 27 kts | 269° |
| 2026-05-07 18:44 | 51.47495 | -0.46890 | 89 ft | 27 kts | 266° |
| 2026-05-07 18:44 | 51.47493 | -0.47197 | 89 ft | 29 kts | 270° |
| 2026-05-07 18:44 | 51.47491 | -0.47496 | 89 ft | 27 kts | 269° |
| 2026-05-07 18:45 | 51.47489 | -0.47809 | 89 ft | 27 kts | 270° |
| 2026-05-07 18:45 | 51.47489 | -0.48111 | 89 ft | 28 kts | 270° |
| 2026-05-07 18:45 | 51.47481 | -0.48322 | 93 ft | 8 kts | 236° |
| 2026-05-07 18:45 | 51.47417 | -0.48361 | 91 ft | 12 kts | 179° |
| 2026-05-07 18:46 | 51.47383 | -0.48349 | 92 ft | 2 kts | 126° |
| 2026-05-07 18:46 | 51.47382 | -0.48299 | 89 ft | 8 kts | 87° |
| 2026-05-07 18:46 | 51.47381 | -0.48217 | 93 ft | 4 kts | 89° |
| 2026-05-07 18:46 | 51.47381 | -0.48206 | 93 ft | 2 kts | 89° |
| 2026-05-07 18:47 | 51.47381 | -0.48200 | 93 ft | 0 kts | 89° |